createdAt,value
2018-12-18T00:02:13.433Z,37.17
2018-12-18T00:04:44.607Z,30.17
2018-12-18T00:07:15.780Z,31.43
2018-12-18T00:09:44.946Z,35.53
2018-12-18T00:12:14.246Z,34.23
2018-12-18T00:14:43.418Z,32.80
2018-12-18T00:17:12.588Z,37.83
2018-12-18T00:19:41.740Z,38.37
2018-12-18T00:22:10.921Z,39.13
2018-12-18T00:24:40.088Z,36.93
2018-12-18T00:27:09.248Z,39.63
2018-12-18T00:29:38.433Z,36.73
2018-12-18T00:32:07.588Z,36.90
2018-12-18T00:34:36.741Z,53.80
2018-12-18T00:37:06.310Z,43.60
2018-12-18T00:39:35.925Z,36.90
2018-12-18T00:42:05.109Z,39.30
2018-12-18T00:44:34.358Z,50.83
2018-12-18T00:47:03.557Z,54.43
2018-12-18T00:49:32.753Z,49.40
2018-12-18T00:52:01.938Z,53.67
2018-12-18T00:54:31.081Z,49.90
2018-12-18T00:57:00.245Z,49.57
2018-12-18T00:59:29.415Z,39.97
2018-12-18T01:02:01.029Z,42.90
2018-12-18T01:04:30.459Z,45.00
2018-12-18T01:06:59.620Z,42.37
2018-12-18T01:09:28.809Z,52.67
2018-12-18T01:11:58.000Z,51.03
2018-12-18T01:14:27.170Z,57.30
2018-12-18T01:16:56.333Z,56.33
2018-12-18T01:19:25.482Z,51.17
2018-12-18T01:21:55.638Z,51.73
2018-12-18T01:24:24.796Z,59.70
2018-12-18T01:26:53.976Z,60.10
2018-12-18T01:29:29.479Z,45.53
2018-12-18T01:31:58.669Z,49.50
2018-12-18T01:34:27.820Z,54.33
2018-12-18T01:36:56.996Z,43.20
2018-12-18T01:39:26.157Z,51.03
2018-12-18T01:41:55.314Z,58.37
2018-12-18T01:44:24.481Z,75.00
2018-12-18T01:46:53.642Z,66.57
2018-12-18T01:49:22.868Z,47.17
2018-12-18T01:51:52.015Z,54.47
2018-12-18T01:54:22.275Z,56.57
2018-12-18T01:56:51.442Z,52.03
2018-12-18T01:59:20.767Z,57.93
2018-12-18T02:01:49.931Z,41.77
2018-12-18T02:04:19.086Z,56.17
2018-12-18T02:06:48.237Z,54.37
2018-12-18T02:09:18.184Z,49.50
2018-12-18T02:11:47.458Z,53.90
2018-12-18T02:14:16.622Z,54.10
2018-12-18T02:16:45.757Z,52.23
2018-12-18T02:19:14.895Z,55.70
2018-12-18T02:21:44.069Z,65.73
2018-12-18T02:24:13.238Z,66.90
2018-12-18T02:26:42.532Z,62.90
2018-12-18T02:29:11.690Z,54.13
2018-12-18T02:31:40.842Z,59.53
2018-12-18T02:34:13.724Z,57.43
2018-12-18T02:36:41.169Z,60.90
2018-12-18T02:39:10.330Z,55.30
2018-12-18T02:41:39.489Z,45.13
2018-12-18T02:44:08.676Z,51.40
2018-12-18T02:46:37.848Z,53.10
2018-12-18T02:49:07.019Z,45.47
2018-12-18T02:51:36.173Z,49.27
2018-12-18T02:54:05.324Z,54.90
2018-12-18T02:56:34.491Z,44.60
2018-12-18T02:59:03.793Z,51.70
2018-12-18T03:01:32.960Z,49.90
2018-12-18T03:04:02.135Z,48.07
2018-12-18T03:06:31.302Z,55.13
2018-12-18T03:09:00.462Z,55.33
2018-12-18T03:11:29.597Z,45.53
2018-12-18T03:13:58.869Z,45.90
2018-12-18T03:16:28.088Z,46.77
2018-12-18T03:18:57.299Z,41.83
2018-12-18T03:21:26.488Z,43.77
2018-12-18T03:23:55.652Z,45.43
2018-12-18T03:26:24.817Z,43.77
2018-12-18T03:28:54.092Z,60.57
2018-12-18T03:31:23.880Z,53.60
2018-12-18T03:33:53.153Z,47.10
2018-12-18T03:36:22.309Z,52.53
2018-12-18T03:38:51.482Z,50.70
2018-12-18T03:41:20.888Z,54.63
2018-12-18T03:43:50.067Z,58.03
2018-12-18T03:46:19.242Z,48.00
2018-12-18T03:48:48.389Z,56.73
2018-12-18T03:51:17.547Z,58.40
2018-12-18T03:53:46.719Z,38.40
2018-12-18T03:56:15.885Z,65.87
2018-12-18T03:58:45.080Z,43.07
2018-12-18T04:01:14.246Z,61.23
2018-12-18T04:03:43.429Z,50.30
2018-12-18T04:06:12.601Z,62.40
2018-12-18T04:08:41.755Z,44.13
2018-12-18T04:11:11.045Z,56.47
2018-12-18T04:13:40.240Z,69.47
2018-12-18T04:16:09.401Z,62.93
2018-12-18T04:18:38.573Z,52.50
2018-12-18T04:21:07.923Z,67.23
2018-12-18T04:23:37.080Z,66.83
2018-12-18T04:26:06.231Z,47.90
2018-12-18T04:28:35.384Z,83.43
2018-12-18T04:31:04.573Z,70.03
2018-12-18T04:33:33.733Z,62.37
2018-12-18T04:36:02.901Z,58.83
2018-12-18T04:38:32.074Z,63.77
2018-12-18T04:41:01.435Z,62.43
2018-12-18T04:43:30.603Z,55.57
2018-12-18T04:45:59.753Z,63.43
2018-12-18T04:48:28.900Z,62.07
2018-12-18T04:50:58.072Z,60.50
2018-12-18T04:53:27.234Z,50.43
2018-12-18T04:55:56.420Z,76.53
2018-12-18T04:58:25.722Z,45.83
2018-12-18T05:00:54.885Z,62.70
2018-12-18T05:03:24.073Z,59.53
2018-12-18T05:05:53.258Z,67.37
2018-12-18T05:08:22.412Z,63.57
2018-12-18T05:10:51.569Z,47.97
2018-12-18T05:13:20.738Z,51.90
2018-12-18T05:15:51.000Z,42.50
2018-12-18T05:18:20.192Z,39.13
2018-12-18T05:20:49.354Z,43.07
2018-12-18T05:23:18.537Z,41.37
2018-12-18T05:25:47.720Z,44.50
2018-12-18T05:28:16.878Z,61.97
2018-12-18T05:30:46.038Z,41.33
2018-12-18T05:33:15.205Z,51.03
2018-12-18T05:35:44.365Z,52.53
2018-12-18T05:38:13.532Z,47.40
2018-12-18T05:40:42.696Z,50.13
2018-12-18T05:43:11.900Z,108.80
2018-12-18T05:45:41.080Z,77.30
2018-12-18T05:48:10.252Z,67.83
2018-12-18T05:50:39.420Z,61.47
2018-12-18T05:53:08.710Z,41.00
2018-12-18T05:55:37.907Z,37.63
2018-12-18T05:58:07.063Z,45.27
2018-12-18T06:00:37.302Z,40.33
2018-12-18T06:03:06.465Z,41.67
2018-12-18T06:05:35.644Z,55.27
2018-12-18T06:08:04.830Z,47.37
2018-12-18T06:10:34.122Z,49.87
2018-12-18T06:13:03.305Z,46.10
2018-12-18T06:15:32.497Z,49.30
2018-12-18T06:18:01.682Z,46.43
2018-12-18T06:20:30.833Z,52.30
2018-12-18T06:22:59.994Z,39.93
2018-12-18T06:25:29.166Z,42.90
2018-12-18T06:27:58.372Z,54.43
2018-12-18T06:30:27.576Z,58.73
2018-12-18T06:32:56.767Z,58.47
2018-12-18T06:35:25.985Z,54.87
2018-12-18T06:37:55.195Z,58.03
2018-12-18T06:40:24.359Z,55.77
2018-12-18T06:42:53.525Z,43.37
2018-12-18T06:45:22.701Z,35.67
2018-12-18T06:47:51.854Z,36.90
2018-12-18T06:50:21.014Z,48.27
2018-12-18T06:52:50.178Z,51.63
2018-12-18T06:55:19.388Z,64.37
2018-12-18T06:57:48.544Z,71.53
2018-12-18T07:00:17.692Z,80.13
2018-12-18T07:02:46.863Z,52.43
2018-12-18T07:05:16.867Z,67.93
2018-12-18T07:07:46.403Z,40.33
2018-12-18T07:10:15.618Z,46.07
2018-12-18T07:12:44.785Z,45.67
2018-12-18T07:15:13.953Z,46.40
2018-12-18T07:17:43.125Z,41.90
2018-12-18T07:20:12.311Z,42.03
2018-12-18T07:22:41.497Z,45.80
2018-12-18T07:25:10.673Z,46.47
2018-12-18T07:27:39.824Z,53.80
2018-12-18T07:30:09.367Z,67.67
2018-12-18T07:32:38.578Z,59.70
2018-12-18T07:35:07.921Z,59.23
2018-12-18T07:37:37.156Z,60.23
2018-12-18T07:40:06.757Z,47.33
2018-12-18T07:42:36.042Z,55.73
2018-12-18T07:45:05.860Z,49.10
2018-12-18T07:47:35.317Z,54.47
2018-12-18T07:50:05.498Z,44.13
2018-12-18T07:52:34.679Z,46.33
2018-12-18T07:55:04.123Z,39.63
2018-12-18T07:57:33.292Z,43.80
2018-12-18T08:00:02.475Z,53.53
2018-12-18T08:02:33.238Z,45.83
2018-12-18T08:05:02.450Z,60.23
2018-12-18T08:07:31.617Z,82.73
2018-12-18T08:10:00.787Z,78.57
2018-12-18T08:12:29.952Z,76.37
2018-12-18T08:14:59.121Z,93.20
2018-12-18T08:17:28.293Z,99.13
2018-12-18T08:19:57.452Z,69.13
2018-12-18T08:22:26.614Z,71.43
2018-12-18T08:24:55.769Z,67.00
2018-12-18T08:27:25.062Z,98.07
2018-12-18T08:29:54.217Z,78.13
2018-12-18T08:32:24.128Z,77.67
2018-12-18T08:34:53.300Z,92.40
2018-12-18T08:37:22.477Z,79.43
2018-12-18T08:39:51.645Z,92.87
2018-12-18T08:42:21.071Z,87.67
2018-12-18T08:44:50.283Z,85.23
2018-12-18T08:47:19.512Z,72.43
2018-12-18T08:49:48.676Z,77.00
2018-12-18T08:52:17.923Z,54.87
2018-12-18T08:54:47.181Z,31.67
2018-12-18T08:57:16.357Z,48.57
2018-12-18T08:59:45.513Z,36.93
2018-12-18T09:02:14.712Z,27.77
2018-12-18T09:04:43.893Z,35.23
2018-12-18T09:07:13.079Z,29.77
2018-12-18T09:09:42.239Z,27.53
2018-12-18T09:12:16.386Z,24.53
2018-12-18T09:14:51.748Z,25.17
2018-12-18T09:17:26.626Z,25.12
2018-12-18T09:19:55.822Z,24.43
2018-12-18T09:22:24.997Z,25.63
2018-12-18T09:24:54.161Z,28.57
2018-12-18T09:27:23.319Z,21.77
2018-12-18T09:29:52.481Z,28.20
2018-12-18T09:32:21.666Z,28.00
2018-12-18T09:34:50.833Z,23.80
2018-12-18T09:37:20.780Z,27.97
2018-12-18T09:39:49.937Z,25.90
2018-12-18T09:42:24.357Z,25.63
2018-12-18T09:44:53.538Z,27.00
2018-12-18T09:47:22.696Z,28.20
2018-12-18T09:49:52.037Z,32.53
2018-12-18T09:52:21.221Z,31.37
2018-12-18T09:54:50.493Z,26.97
2018-12-18T09:57:25.047Z,26.10
2018-12-18T09:59:54.235Z,31.70
2018-12-18T10:02:23.603Z,27.17
2018-12-18T10:04:52.770Z,27.67
2018-12-18T10:07:21.931Z,25.73
2018-12-18T10:09:51.088Z,25.77
2018-12-18T10:12:24.449Z,21.70
2018-12-18T10:14:53.607Z,32.50
2018-12-18T10:17:22.781Z,15.33
2018-12-18T10:19:51.934Z,17.33
2018-12-18T10:22:21.127Z,12.83
2018-12-18T10:24:50.307Z,16.23
2018-12-18T10:27:19.686Z,12.93
2018-12-18T10:29:49.240Z,12.73
2018-12-18T10:32:18.458Z,15.77
2018-12-18T10:34:47.623Z,8.80
2018-12-18T10:37:16.801Z,37.40
2018-12-18T10:39:45.988Z,13.33
2018-12-18T10:42:15.140Z,11.17
2018-12-18T10:44:44.306Z,9.13
2018-12-18T10:47:13.477Z,9.07
2018-12-18T10:49:42.632Z,8.67
2018-12-18T10:52:12.066Z,9.43
2018-12-18T10:54:41.236Z,7.47
2018-12-18T10:57:10.416Z,8.37
2018-12-18T10:59:39.579Z,9.27
2018-12-18T11:02:09.025Z,8.30
2018-12-18T11:04:38.782Z,7.93
2018-12-18T11:07:07.970Z,6.87
2018-12-18T11:09:37.151Z,7.97
2018-12-18T11:12:06.361Z,7.13
2018-12-18T11:14:35.561Z,6.67
2018-12-18T11:17:04.744Z,7.33
2018-12-18T11:19:33.971Z,8.63
2018-12-18T11:22:03.168Z,9.00
2018-12-18T11:24:32.316Z,7.20
2018-12-18T11:27:01.513Z,6.53
2018-12-18T11:29:30.686Z,7.67
2018-12-18T11:32:02.742Z,7.53
2018-12-18T11:34:31.943Z,7.23
2018-12-18T11:37:01.110Z,7.37
2018-12-18T11:39:30.265Z,6.40
2018-12-18T11:41:59.433Z,6.83
2018-12-18T11:44:28.597Z,6.23
2018-12-18T11:46:58.040Z,8.20
2018-12-18T11:49:27.210Z,6.97
2018-12-18T11:51:56.811Z,6.50
2018-12-18T11:54:25.978Z,6.90
2018-12-18T11:56:55.177Z,7.00
2018-12-18T11:59:24.329Z,6.03
2018-12-18T12:01:53.501Z,6.60
2018-12-18T12:04:22.675Z,5.87
2018-12-18T12:06:51.839Z,8.00
2018-12-18T12:09:22.020Z,6.70
2018-12-18T12:11:51.194Z,7.97
2018-12-18T12:14:21.288Z,6.97
2018-12-18T12:16:50.452Z,6.10
2018-12-18T12:19:19.648Z,10.83
2018-12-18T12:21:48.820Z,6.30
2018-12-18T12:24:24.596Z,7.43
2018-12-18T12:26:57.965Z,6.07
2018-12-18T12:29:27.145Z,5.83
2018-12-18T12:31:56.360Z,5.07
2018-12-18T12:34:25.536Z,5.57
2018-12-18T12:36:55.072Z,7.17
2018-12-18T12:39:24.265Z,11.33
2018-12-18T12:41:53.549Z,5.17
2018-12-18T12:44:22.836Z,5.70
2018-12-18T12:46:51.993Z,9.67
2018-12-18T12:49:25.762Z,13.93
2018-12-18T12:51:55.503Z,12.90
2018-12-18T12:54:25.742Z,7.17
2018-12-18T12:56:55.329Z,18.03
2018-12-18T12:59:24.812Z,19.83
2018-12-18T13:01:54.079Z,18.43
2018-12-18T13:04:23.258Z,17.30
2018-12-18T13:06:52.504Z,16.90
2018-12-18T13:09:21.761Z,11.90
2018-12-18T13:11:51.018Z,15.33
2018-12-18T13:14:20.196Z,28.63
2018-12-18T13:16:49.408Z,44.00
2018-12-18T13:19:18.643Z,64.17
2018-12-18T13:21:47.874Z,30.73
2018-12-18T13:24:17.166Z,61.83
2018-12-18T13:26:46.359Z,22.27
2018-12-18T13:29:15.585Z,90.63
2018-12-18T13:31:45.564Z,22.83
2018-12-18T13:34:14.781Z,20.57
2018-12-18T13:36:44.043Z,23.13
2018-12-18T13:39:13.245Z,27.70
2018-12-18T13:41:42.502Z,23.07
2018-12-18T13:44:11.702Z,17.63
2018-12-18T13:46:41.535Z,21.97
2018-12-18T13:49:11.706Z,18.13
2018-12-18T13:51:40.993Z,12.43
2018-12-18T13:54:10.157Z,11.60
2018-12-18T13:56:39.429Z,12.50
2018-12-18T13:59:08.619Z,11.60
2018-12-18T14:01:37.879Z,12.70
2018-12-18T14:04:07.121Z,14.93
2018-12-18T14:06:36.334Z,10.50
2018-12-18T14:09:09.191Z,10.70
2018-12-18T14:11:38.444Z,11.43
2018-12-18T14:14:14.383Z,13.63
2018-12-18T14:16:43.606Z,11.33
2018-12-18T14:19:12.833Z,11.60
2018-12-18T14:21:42.107Z,9.90
2018-12-18T14:24:11.361Z,10.93
2018-12-18T14:26:40.609Z,10.43
2018-12-18T14:29:09.856Z,10.80
2018-12-18T14:31:39.071Z,11.73
2018-12-18T14:34:08.319Z,11.00
2018-12-18T14:36:38.302Z,12.17
2018-12-18T14:39:08.088Z,11.50
2018-12-18T14:41:39.362Z,13.13
2018-12-18T14:44:09.647Z,13.20
2018-12-18T14:46:38.873Z,13.20
2018-12-18T14:49:08.145Z,13.87
2018-12-18T14:51:37.448Z,19.10
2018-12-18T14:54:06.700Z,22.97
2018-12-18T14:56:36.357Z,16.23
2018-12-18T14:59:05.620Z,16.30
2018-12-18T15:01:34.884Z,20.50
2018-12-18T15:04:04.312Z,20.03
2018-12-18T15:06:33.570Z,21.33
2018-12-18T15:09:02.865Z,21.70
2018-12-18T15:11:34.185Z,22.80
2018-12-18T15:14:03.439Z,24.77
2018-12-18T15:16:32.770Z,26.90
2018-12-18T15:19:02.069Z,28.47
2018-12-18T15:21:31.462Z,33.40
2018-12-18T15:24:00.727Z,27.97
2018-12-18T15:26:29.992Z,26.13
2018-12-18T15:28:59.228Z,24.23
2018-12-18T15:31:28.495Z,23.23
2018-12-18T15:33:57.757Z,21.87
2018-12-18T15:36:26.987Z,23.10
2018-12-18T15:38:56.269Z,25.53
2018-12-18T15:41:25.521Z,25.07
2018-12-18T15:43:54.777Z,24.07
2018-12-18T15:46:24.075Z,25.53
2018-12-18T15:48:53.344Z,44.30
2018-12-18T15:51:22.629Z,31.27
2018-12-18T15:53:53.010Z,40.17
2018-12-18T15:56:22.287Z,51.90
2018-12-18T15:58:51.573Z,57.50
2018-12-18T16:01:20.877Z,71.33
2018-12-18T16:03:50.143Z,60.93
2018-12-18T16:06:19.406Z,49.33
2018-12-18T16:08:48.688Z,68.47
2018-12-18T16:11:17.984Z,72.77
2018-12-18T16:13:47.286Z,48.63
2018-12-18T16:16:16.991Z,98.57
2018-12-18T16:18:46.311Z,74.70
2018-12-18T16:21:15.602Z,64.70
2018-12-18T16:23:44.956Z,51.03
2018-12-18T16:26:14.268Z,73.23
2018-12-18T16:28:43.543Z,56.20
2018-12-18T16:31:12.810Z,113.90
2018-12-18T16:33:42.113Z,134.67
2018-12-18T16:36:11.378Z,84.70
2018-12-18T16:38:40.673Z,93.43
2018-12-18T16:41:10.949Z,140.47
2018-12-18T16:43:40.236Z,119.80
2018-12-18T16:46:09.634Z,180.60
2018-12-18T16:48:38.945Z,112.90
2018-12-18T16:51:08.287Z,106.47
2018-12-18T16:53:37.595Z,169.73
2018-12-18T16:56:07.041Z,148.23
2018-12-18T16:58:36.334Z,134.53
2018-12-18T17:01:05.600Z,108.77
2018-12-18T17:03:34.937Z,102.43
2018-12-18T17:06:04.236Z,45.50
2018-12-18T17:08:33.530Z,61.83
2018-12-18T17:11:02.829Z,73.07
2018-12-18T17:13:32.146Z,476.80
2018-12-18T17:16:01.417Z,128.73
2018-12-18T17:18:30.687Z,63.63
2018-12-18T17:20:59.988Z,71.57
2018-12-18T17:23:29.285Z,81.70
2018-12-18T17:25:58.603Z,80.40
2018-12-18T17:28:27.891Z,68.33
2018-12-18T17:30:57.167Z,92.88
2018-12-18T17:33:26.447Z,63.00
2018-12-18T17:35:55.979Z,32.60
2018-12-18T17:38:25.737Z,106.37
2018-12-18T17:40:55.305Z,85.57
2018-12-18T17:43:25.195Z,60.57
2018-12-18T17:45:54.489Z,84.17
2018-12-18T17:48:23.768Z,58.70
2018-12-18T17:50:53.112Z,51.90
2018-12-18T17:53:22.966Z,122.10
2018-12-18T17:55:52.230Z,60.90
2018-12-18T17:58:21.538Z,85.37
2018-12-18T18:00:50.811Z,107.20
2018-12-18T18:03:21.206Z,98.53
2018-12-18T18:05:52.661Z,70.53
2018-12-18T18:08:21.993Z,79.47
2018-12-18T18:10:51.258Z,107.40
2018-12-18T18:13:21.145Z,54.60
2018-12-18T18:15:50.423Z,72.97
2018-12-18T18:18:19.817Z,67.27
2018-12-18T18:20:49.100Z,80.57
2018-12-18T18:23:18.360Z,114.03
2018-12-18T18:25:48.959Z,112.50
2018-12-18T18:28:18.922Z,89.87
2018-12-18T18:30:48.253Z,54.77
2018-12-18T18:33:17.512Z,107.03
2018-12-18T18:35:46.785Z,94.43
2018-12-18T18:38:16.048Z,67.83
2018-12-18T18:40:45.291Z,90.03
2018-12-18T18:43:14.573Z,48.97
2018-12-18T18:45:43.869Z,98.07
2018-12-18T18:48:13.153Z,48.93
2018-12-18T18:50:43.369Z,90.33
2018-12-18T18:53:12.705Z,86.50
2018-12-18T18:55:41.980Z,150.40
2018-12-18T18:58:11.398Z,127.50
2018-12-18T19:00:40.706Z,146.68
2018-12-18T19:03:10.007Z,66.97
2018-12-18T19:05:39.926Z,108.63
2018-12-18T19:08:09.206Z,107.10
2018-12-18T19:10:38.821Z,77.70
2018-12-18T19:13:08.977Z,91.43
2018-12-18T19:15:38.937Z,74.30
2018-12-18T19:18:08.214Z,165.87
2018-12-18T19:20:37.533Z,160.00
2018-12-18T19:23:06.799Z,140.63
2018-12-18T19:25:36.124Z,179.97
2018-12-18T19:28:05.425Z,149.37
2018-12-18T19:30:35.158Z,186.90
2018-12-18T19:33:04.570Z,89.57
2018-12-18T19:35:34.724Z,134.87
2018-12-18T19:38:04.094Z,158.87
2018-12-18T19:40:33.502Z,156.13
2018-12-18T19:43:02.805Z,113.77
2018-12-18T19:45:32.087Z,155.27
2018-12-18T19:48:01.708Z,142.20
2018-12-18T19:50:32.172Z,99.43
2018-12-18T19:53:01.432Z,129.20
2018-12-18T19:55:30.800Z,100.47
2018-12-18T19:58:00.094Z,126.20
2018-12-18T20:00:29.389Z,109.43
2018-12-18T20:02:58.661Z,83.80
2018-12-18T20:05:28.299Z,49.77
2018-12-18T20:07:57.613Z,77.40
2018-12-18T20:10:26.914Z,65.20
2018-12-18T20:12:56.237Z,78.70
2018-12-18T20:15:25.552Z,97.10
2018-12-18T20:17:55.937Z,63.00
2018-12-18T20:20:25.226Z,43.40
2018-12-18T20:22:54.499Z,53.33
2018-12-18T20:25:23.772Z,34.37
2018-12-18T20:27:54.169Z,33.83
2018-12-18T20:30:23.473Z,37.97
2018-12-18T20:32:53.694Z,63.63
2018-12-18T20:35:22.977Z,33.97
2018-12-18T20:37:52.328Z,51.30
2018-12-18T20:40:21.616Z,74.53
2018-12-18T20:42:50.906Z,61.63
2018-12-18T20:45:20.219Z,60.67
2018-12-18T20:47:49.518Z,96.80
2018-12-18T20:50:18.794Z,186.50
2018-12-18T20:52:48.102Z,104.10
2018-12-18T20:55:17.389Z,209.63
2018-12-18T20:57:46.680Z,71.97
2018-12-18T21:00:15.986Z,152.00
2018-12-18T21:02:46.176Z,105.43
2018-12-18T21:05:21.851Z,61.67
2018-12-18T21:07:51.252Z,50.07
2018-12-18T21:10:23.389Z,48.13
2018-12-18T21:12:58.248Z,50.43
2018-12-18T21:15:28.226Z,38.70
2018-12-18T21:17:58.405Z,50.43
2018-12-18T21:20:29.413Z,38.87
2018-12-18T21:22:59.978Z,33.60
2018-12-18T21:25:29.358Z,23.20
2018-12-18T21:28:00.048Z,15.70
2018-12-18T21:30:29.499Z,15.63
2018-12-18T21:33:00.741Z,16.00
2018-12-18T21:35:31.023Z,14.93
2018-12-18T21:38:00.496Z,33.60
2018-12-18T21:40:30.963Z,23.87
2018-12-18T21:43:00.342Z,19.53
2018-12-18T21:45:29.737Z,21.70
2018-12-18T21:47:59.272Z,20.70
2018-12-18T21:50:29.394Z,48.70
2018-12-18T21:53:00.054Z,30.93
2018-12-18T21:55:29.484Z,20.47
2018-12-18T21:57:58.813Z,72.83
2018-12-18T22:00:28.118Z,24.10
2018-12-18T22:02:57.488Z,23.80
2018-12-18T22:05:28.219Z,34.97
2018-12-18T22:07:57.548Z,40.63
2018-12-18T22:10:26.847Z,39.73
2018-12-18T22:12:56.103Z,39.10
2018-12-18T22:15:25.413Z,24.60
2018-12-18T22:17:55.778Z,35.60
2018-12-18T22:20:25.117Z,51.23
2018-12-18T22:22:54.396Z,26.70
2018-12-18T22:25:23.581Z,23.53
2018-12-18T22:27:52.961Z,33.70
2018-12-18T22:30:26.234Z,29.03
2018-12-18T22:32:57.011Z,37.37
2018-12-18T22:35:27.022Z,35.27
2018-12-18T22:37:56.228Z,29.67
2018-12-18T22:40:26.046Z,25.90
2018-12-18T22:42:55.207Z,24.83
2018-12-18T22:45:24.360Z,20.37
2018-12-18T22:47:53.532Z,22.37
2018-12-18T22:50:22.731Z,22.17
2018-12-18T22:52:51.906Z,23.23
2018-12-18T22:55:21.088Z,23.27
2018-12-18T22:57:50.284Z,21.57
2018-12-18T23:00:24.651Z,19.83
2018-12-18T23:02:58.423Z,16.93
2018-12-18T23:05:27.896Z,17.10
2018-12-18T23:07:57.067Z,15.33
2018-12-18T23:10:27.618Z,16.73
2018-12-18T23:12:57.411Z,18.93
2018-12-18T23:15:26.574Z,17.33
2018-12-18T23:17:55.733Z,18.03
2018-12-18T23:20:24.899Z,17.30
2018-12-18T23:22:54.122Z,17.07
2018-12-18T23:25:23.464Z,17.70
2018-12-18T23:27:54.635Z,20.83
2018-12-18T23:30:23.930Z,24.30
2018-12-18T23:32:53.092Z,22.27
2018-12-18T23:35:23.980Z,27.07
2018-12-18T23:37:53.279Z,22.73
2018-12-18T23:40:22.478Z,23.37
2018-12-18T23:42:51.635Z,22.90
2018-12-18T23:45:20.942Z,33.50
2018-12-18T23:47:50.118Z,21.90
2018-12-18T23:50:19.352Z,24.47
2018-12-18T23:52:48.504Z,23.70
2018-12-18T23:55:17.684Z,20.63
2018-12-18T23:57:47.369Z,22.47
